createdAt,value
2022-12-25T00:02:01.932Z,25.40
2022-12-25T00:07:03.609Z,30.40
2022-12-25T00:12:05.394Z,30.13
2022-12-25T00:17:07.017Z,30.75
2022-12-25T00:22:11.503Z,26.73
2022-12-25T00:27:13.177Z,33.35
2022-12-25T00:32:14.920Z,28.10
2022-12-25T00:37:16.506Z,22.42
2022-12-25T00:42:20.905Z,28.50
2022-12-25T00:47:22.802Z,30.88
2022-12-25T00:52:24.473Z,28.52
2022-12-25T00:57:28.555Z,29.30
2022-12-25T01:02:30.218Z,38.67
2022-12-25T01:07:32.004Z,30.13
2022-12-25T01:12:36.873Z,25.70
2022-12-25T01:17:38.701Z,24.95
2022-12-25T01:22:43.785Z,28.60
2022-12-25T01:27:45.400Z,23.95
2022-12-25T01:32:47.035Z,22.48
2022-12-25T01:37:48.718Z,27.15
2022-12-25T01:42:50.432Z,23.92
2022-12-25T01:47:52.218Z,35.05
2022-12-25T01:52:54.916Z,25.80
2022-12-25T01:57:56.906Z,31.95
2022-12-25T02:02:59.227Z,25.17
2022-12-25T02:08:08.022Z,25.67
2022-12-25T02:13:09.773Z,28.70
2022-12-25T02:18:50.049Z,29.17
2022-12-25T02:24:17.420Z,26.15
2022-12-25T02:29:40.840Z,27.88
2022-12-25T02:35:00.731Z,35.03
2022-12-25T02:40:05.887Z,25.90
2022-12-25T02:45:26.766Z,27.73
2022-12-25T02:50:47.415Z,28.90
2022-12-25T02:56:08.678Z,26.77
2022-12-25T03:01:39.068Z,33.67
2022-12-25T03:06:46.490Z,30.27
2022-12-25T03:11:55.777Z,27.20
2022-12-25T03:16:59.473Z,32.45
2022-12-25T03:22:19.896Z,27.75
2022-12-25T03:27:21.788Z,27.73
2022-12-25T03:32:43.143Z,23.42
2022-12-25T03:43:47.702Z,36.00
2022-12-25T03:49:13.421Z,25.40
2022-12-25T03:54:36.909Z,29.90
2022-12-25T03:59:56.887Z,31.50
2022-12-25T04:05:17.099Z,26.15
2022-12-25T04:10:37.548Z,28.90
2022-12-25T04:15:57.817Z,26.53
2022-12-25T04:21:18.450Z,29.48
2022-12-25T04:26:38.881Z,29.97
2022-12-25T04:31:59.627Z,22.83
2022-12-25T04:37:01.231Z,28.27
2022-12-25T04:42:02.916Z,30.38
2022-12-25T04:47:10.789Z,31.10
2022-12-25T04:52:12.964Z,28.75
2022-12-25T04:57:14.608Z,26.92
2022-12-25T05:02:16.319Z,25.90
2022-12-25T05:07:18.168Z,24.45
2022-12-25T05:12:19.830Z,35.67
2022-12-25T05:17:21.531Z,25.95
2022-12-25T05:22:23.215Z,23.85
2022-12-25T05:27:24.870Z,26.33
2022-12-25T05:32:26.487Z,31.05
2022-12-25T05:37:28.094Z,26.33
2022-12-25T05:42:29.715Z,23.83
2022-12-25T05:47:31.332Z,25.02
2022-12-25T05:52:34.393Z,31.35
2022-12-25T05:57:36.107Z,27.00
2022-12-25T06:02:38.056Z,28.77
2022-12-25T06:07:39.766Z,28.33
2022-12-25T06:12:41.369Z,25.90
2022-12-25T06:17:43.031Z,32.20
2022-12-25T06:22:44.656Z,34.15
2022-12-25T06:27:46.356Z,24.45
2022-12-25T06:32:47.985Z,27.80
2022-12-25T06:37:49.583Z,30.00
2022-12-25T06:42:52.464Z,29.70
2022-12-25T06:47:54.097Z,29.02
2022-12-25T06:52:56.575Z,26.63
2022-12-25T06:57:58.196Z,26.33
2022-12-25T07:02:59.962Z,24.42
2022-12-25T07:08:01.764Z,28.23
2022-12-25T07:13:03.366Z,20.65
2022-12-25T07:18:05.072Z,21.25
2022-12-25T07:23:06.730Z,19.42
2022-12-25T07:28:08.309Z,23.48
2022-12-25T07:33:09.907Z,32.88
2022-12-25T07:38:11.620Z,26.25
2022-12-25T07:43:13.677Z,28.00
2022-12-25T07:48:16.777Z,28.83
2022-12-25T07:53:18.708Z,27.40
2022-12-25T07:58:23.449Z,30.42
2022-12-25T08:03:25.453Z,22.83
2022-12-25T08:08:27.222Z,29.40
2022-12-25T08:13:32.879Z,26.40
2022-12-25T08:18:36.223Z,26.33
2022-12-25T08:23:40.286Z,23.67
2022-12-25T08:28:41.984Z,23.77
2022-12-25T08:33:44.062Z,21.55
2022-12-25T08:38:46.242Z,23.10
2022-12-25T08:43:47.866Z,21.00
2022-12-25T08:48:50.141Z,24.17
2022-12-25T08:53:53.441Z,26.45
2022-12-25T08:58:55.100Z,28.15
2022-12-25T09:03:56.754Z,23.83
2022-12-25T09:08:58.367Z,22.73
2022-12-25T09:14:00.664Z,20.27
2022-12-25T09:19:02.440Z,18.90
2022-12-25T09:24:05.307Z,27.10
2022-12-25T09:29:06.971Z,27.38
2022-12-25T09:34:12.584Z,22.02
2022-12-25T09:39:18.659Z,20.53
2022-12-25T09:44:25.814Z,23.20
2022-12-25T09:49:49.326Z,17.23
2022-12-25T09:55:05.868Z,12.63
2022-12-25T10:00:17.001Z,12.23
2022-12-25T10:05:34.847Z,12.40
2022-12-25T10:10:42.602Z,13.80
2022-12-25T10:15:54.578Z,11.30
2022-12-25T10:21:02.084Z,13.90
2022-12-25T10:26:11.998Z,21.73
2022-12-25T10:31:22.273Z,17.10
2022-12-25T10:36:26.558Z,13.23
2022-12-25T10:41:28.079Z,19.98
2022-12-25T10:46:29.982Z,21.73
2022-12-25T10:51:37.717Z,23.92
2022-12-25T10:56:39.317Z,18.05
2022-12-25T11:01:41.086Z,18.85
2022-12-25T11:06:42.869Z,23.05
2022-12-25T11:11:48.195Z,22.23
2022-12-25T11:16:50.569Z,25.48
2022-12-25T11:21:54.811Z,26.00
2022-12-25T11:27:06.079Z,19.42
2022-12-25T11:32:20.709Z,28.35
2022-12-25T11:37:33.484Z,23.48
2022-12-25T11:42:40.116Z,18.08
2022-12-25T11:47:54.378Z,15.27
2022-12-25T11:53:00.150Z,16.75
2022-12-25T11:58:11.296Z,20.05
2022-12-25T12:03:35.967Z,23.63
2022-12-25T12:08:38.395Z,21.15
2022-12-25T12:14:10.172Z,22.98
2022-12-25T12:19:23.979Z,27.27
2022-12-25T12:24:33.464Z,17.08
2022-12-25T12:29:43.190Z,17.50
2022-12-25T12:34:52.220Z,17.50
2022-12-25T12:39:55.525Z,16.88
2022-12-25T12:45:06.466Z,16.23
2022-12-25T12:55:31.185Z,14.88
2022-12-25T13:00:53.250Z,13.02
2022-12-25T13:06:01.256Z,13.40
2022-12-25T13:11:09.728Z,12.65
2022-12-25T13:16:36.650Z,14.80
2022-12-25T13:21:38.555Z,16.67
2022-12-25T13:26:40.206Z,19.25
2022-12-25T13:31:45.101Z,18.80
2022-12-25T13:36:46.923Z,17.65
2022-12-25T13:42:06.668Z,12.35
2022-12-25T13:47:21.038Z,7.05
2022-12-25T13:52:28.679Z,9.20
2022-12-25T13:57:37.081Z,7.32
2022-12-25T14:02:39.519Z,7.55
2022-12-25T14:07:42.505Z,7.70
2022-12-25T14:12:45.097Z,6.43
2022-12-25T14:17:47.544Z,7.55
2022-12-25T14:22:53.130Z,9.02
2022-12-25T14:27:55.129Z,8.30
2022-12-25T14:32:57.358Z,5.35
2022-12-25T14:38:00.539Z,5.75
2022-12-25T14:43:04.995Z,6.32
2022-12-25T14:48:25.046Z,6.70
2022-12-25T14:54:00.452Z,7.95
2022-12-25T14:59:02.943Z,7.82
2022-12-25T15:04:06.621Z,5.93
2022-12-25T15:09:16.514Z,8.57
2022-12-25T15:14:18.199Z,9.43
2022-12-25T15:19:31.746Z,8.57
2022-12-25T15:24:36.700Z,9.63
2022-12-25T15:30:08.497Z,8.50
2022-12-25T15:34:59.973Z,8.98
2022-12-25T15:40:02.312Z,9.20
2022-12-25T15:45:04.499Z,10.68
2022-12-25T15:50:06.720Z,9.65
2022-12-25T15:55:09.640Z,7.55
2022-12-25T16:00:19.929Z,8.82
2022-12-25T16:05:22.140Z,7.95
2022-12-25T16:10:23.841Z,11.65
2022-12-25T16:15:25.491Z,9.30
2022-12-25T16:20:27.163Z,8.63
2022-12-25T16:25:28.819Z,8.93
2022-12-25T16:30:30.480Z,9.43
2022-12-25T16:35:33.163Z,9.77
2022-12-25T16:40:35.152Z,15.20
2022-12-25T16:45:40.353Z,13.20
2022-12-25T16:50:42.703Z,14.60
2022-12-25T16:55:44.318Z,12.02
2022-12-25T17:00:49.529Z,13.93
2022-12-25T17:05:51.397Z,12.75
2022-12-25T17:10:53.007Z,14.95
2022-12-25T17:15:54.716Z,11.57
2022-12-25T17:20:56.375Z,13.32
2022-12-25T17:26:01.618Z,14.68
2022-12-25T17:31:04.909Z,12.05
2022-12-25T17:36:10.943Z,14.40
2022-12-25T17:41:14.809Z,12.68
2022-12-25T17:46:27.524Z,15.60
2022-12-25T17:51:31.652Z,11.80
2022-12-25T17:56:33.570Z,11.40
2022-12-25T18:01:38.454Z,10.63
2022-12-25T18:06:40.300Z,10.10
2022-12-25T18:11:43.434Z,10.05
2022-12-25T18:16:46.875Z,11.07
2022-12-25T18:21:50.063Z,11.20
2022-12-25T18:26:51.679Z,7.45
2022-12-25T18:31:54.992Z,7.72
2022-12-25T18:37:02.960Z,7.25
2022-12-25T18:42:23.647Z,6.93
2022-12-25T18:47:25.213Z,9.00
2022-12-25T18:52:48.523Z,9.20
2022-12-25T18:57:49.686Z,11.38
2022-12-25T19:02:58.070Z,8.85
2022-12-25T19:08:00.097Z,7.43
2022-12-25T19:13:01.665Z,7.10
2022-12-25T19:18:03.477Z,5.82
2022-12-25T19:23:05.082Z,6.18
2022-12-25T19:28:06.698Z,8.10
2022-12-25T19:33:13.977Z,6.10
2022-12-25T19:38:20.261Z,6.65
2022-12-25T19:43:21.906Z,6.55
2022-12-25T19:48:23.931Z,5.53
2022-12-25T19:53:26.688Z,6.25
2022-12-25T19:58:28.425Z,6.80
2022-12-25T20:03:30.215Z,8.00
2022-12-25T20:08:32.571Z,5.90
2022-12-25T20:13:34.187Z,7.45
2022-12-25T20:18:37.064Z,5.38
2022-12-25T20:23:38.746Z,5.20
2022-12-25T20:28:41.910Z,5.60
2022-12-25T20:33:43.853Z,5.32
2022-12-25T20:38:45.533Z,7.40
2022-12-25T20:43:51.115Z,7.13
2022-12-25T20:49:03.195Z,5.75
2022-12-25T20:54:11.909Z,7.97
2022-12-25T20:59:15.976Z,6.43
2022-12-25T21:04:19.879Z,5.70
2022-12-25T21:09:23.486Z,6.07
2022-12-25T21:14:26.643Z,8.52
2022-12-25T21:19:28.329Z,6.13
2022-12-25T21:24:29.941Z,6.78
2022-12-25T21:29:31.615Z,6.07
2022-12-25T21:34:33.500Z,6.20
2022-12-25T21:39:35.149Z,7.25
2022-12-25T21:44:36.744Z,5.97
2022-12-25T21:49:56.896Z,6.57
2022-12-25T21:54:58.544Z,7.13
2022-12-25T22:00:01.147Z,5.93
2022-12-25T22:05:02.871Z,8.35
2022-12-25T22:10:04.993Z,6.32
2022-12-25T22:15:09.999Z,6.43
2022-12-25T22:20:15.231Z,5.78
2022-12-25T22:25:17.850Z,5.13
2022-12-25T22:30:25.891Z,5.28
2022-12-25T22:35:27.522Z,5.30
2022-12-25T22:40:29.200Z,5.38
2022-12-25T22:45:30.794Z,6.88
2022-12-25T22:50:32.386Z,5.32
2022-12-25T22:55:34.130Z,5.57
2022-12-25T23:00:39.755Z,5.00
2022-12-25T23:05:53.716Z,6.03
2022-12-25T23:11:00.754Z,5.07
2022-12-25T23:16:02.813Z,5.93
2022-12-25T23:21:23.198Z,6.60
2022-12-25T23:26:24.743Z,6.77
2022-12-25T23:31:36.749Z,4.85
2022-12-25T23:36:38.597Z,4.07
2022-12-25T23:41:42.153Z,5.65
2022-12-25T23:46:52.578Z,5.03
2022-12-25T23:51:55.816Z,4.63
2022-12-25T23:56:58.442Z,5.53
